sensor_id;sensor_type;location;lat;lon;timestamp;temperature;humidity
29687;DHT22;16599;47.078;15.536;2022-10-31T00:01:25;8.50;99.90
29687;DHT22;16599;47.078;15.536;2022-10-31T00:03:52;8.40;99.90
29687;DHT22;16599;47.078;15.536;2022-10-31T00:06:19;8.50;99.90
29687;DHT22;16599;47.078;15.536;2022-10-31T00:08:55;8.40;99.90
29687;DHT22;16599;47.078;15.536;2022-10-31T00:11:22;8.30;99.90
29687;DHT22;16599;47.078;15.536;2022-10-31T00:13:49;8.40;99.90
29687;DHT22;16599;47.078;15.536;2022-10-31T00:16:18;8.40;99.90
29687;DHT22;16599;47.078;15.536;2022-10-31T00:18:53;8.40;99.90
29687;DHT22;16599;47.078;15.536;2022-10-31T00:21:20;8.20;99.90
29687;DHT22;16599;47.078;15.536;2022-10-31T00:23:48;8.40;99.90
29687;DHT22;16599;47.078;15.536;2022-10-31T00:26:15;8.20;99.90
29687;DHT22;16599;47.078;15.536;2022-10-31T00:28:42;8.10;99.90
29687;DHT22;16599;47.078;15.536;2022-10-31T00:31:10;8.20;99.90
29687;DHT22;16599;47.078;15.536;2022-10-31T00:33:38;8.30;99.90
29687;DHT22;16599;47.078;15.536;2022-10-31T00:36:07;8.20;99.90
29687;DHT22;16599;47.078;15.536;2022-10-31T00:38:34;8.10;99.90
29687;DHT22;16599;47.078;15.536;2022-10-31T00:41:00;8.20;99.90
29687;DHT22;16599;47.078;15.536;2022-10-31T00:43:27;8.10;99.90
29687;DHT22;16599;47.078;15.536;2022-10-31T00:45:54;8.10;99.90
29687;DHT22;16599;47.078;15.536;2022-10-31T00:48:21;8.20;99.90
29687;DHT22;16599;47.078;15.536;2022-10-31T00:50:47;8.20;99.90
29687;DHT22;16599;47.078;15.536;2022-10-31T00:53:14;8.20;99.90
29687;DHT22;16599;47.078;15.536;2022-10-31T00:55:41;8.00;99.90
29687;DHT22;16599;47.078;15.536;2022-10-31T00:58:08;7.90;99.90
29687;DHT22;16599;47.078;15.536;2022-10-31T01:00:35;8.00;99.90
29687;DHT22;16599;47.078;15.536;2022-10-31T01:03:02;8.10;99.90
29687;DHT22;16599;47.078;15.536;2022-10-31T01:05:29;8.00;99.90
29687;DHT22;16599;47.078;15.536;2022-10-31T01:07:56;8.00;99.90
29687;DHT22;16599;47.078;15.536;2022-10-31T01:10:22;7.90;99.90
29687;DHT22;16599;47.078;15.536;2022-10-31T01:12:49;8.00;99.90
29687;DHT22;16599;47.078;15.536;2022-10-31T01:15:21;7.80;99.90
29687;DHT22;16599;47.078;15.536;2022-10-31T01:17:49;8.00;99.90
29687;DHT22;16599;47.078;15.536;2022-10-31T01:20:16;8.00;99.90
29687;DHT22;16599;47.078;15.536;2022-10-31T01:22:43;8.00;99.90
29687;DHT22;16599;47.078;15.536;2022-10-31T01:25:10;7.90;99.90
29687;DHT22;16599;47.078;15.536;2022-10-31T01:27:37;7.90;99.90
29687;DHT22;16599;47.078;15.536;2022-10-31T01:30:05;7.80;99.90
29687;DHT22;16599;47.078;15.536;2022-10-31T01:32:32;7.80;99.90
29687;DHT22;16599;47.078;15.536;2022-10-31T01:34:58;7.80;99.90
29687;DHT22;16599;47.078;15.536;2022-10-31T01:37:25;7.80;99.90
29687;DHT22;16599;47.078;15.536;2022-10-31T01:39:52;7.60;99.90
29687;DHT22;16599;47.078;15.536;2022-10-31T01:42:21;7.80;99.90
29687;DHT22;16599;47.078;15.536;2022-10-31T01:44:55;7.80;99.90
29687;DHT22;16599;47.078;15.536;2022-10-31T01:47:41;7.80;99.90
29687;DHT22;16599;47.078;15.536;2022-10-31T01:50:20;7.80;99.90
29687;DHT22;16599;47.078;15.536;2022-10-31T01:52:50;7.80;99.90
29687;DHT22;16599;47.078;15.536;2022-10-31T01:55:23;7.80;99.90
29687;DHT22;16599;47.078;15.536;2022-10-31T01:57:59;7.90;99.90
29687;DHT22;16599;47.078;15.536;2022-10-31T02:00:30;7.70;99.90
29687;DHT22;16599;47.078;15.536;2022-10-31T02:02:57;7.90;99.90
29687;DHT22;16599;47.078;15.536;2022-10-31T02:05:29;7.70;99.90
29687;DHT22;16599;47.078;15.536;2022-10-31T02:10:36;7.60;99.90
29687;DHT22;16599;47.078;15.536;2022-10-31T02:13:06;7.70;99.90
29687;DHT22;16599;47.078;15.536;2022-10-31T02:15:35;7.80;99.90
29687;DHT22;16599;47.078;15.536;2022-10-31T02:18:03;7.70;99.90
29687;DHT22;16599;47.078;15.536;2022-10-31T02:20:53;7.70;99.90
29687;DHT22;16599;47.078;15.536;2022-10-31T02:26:31;7.40;99.90
29687;DHT22;16599;47.078;15.536;2022-10-31T02:31:59;7.70;99.90
29687;DHT22;16599;47.078;15.536;2022-10-31T02:34:30;7.70;99.90
29687;DHT22;16599;47.078;15.536;2022-10-31T02:37:22;7.70;99.90
29687;DHT22;16599;47.078;15.536;2022-10-31T02:42:33;7.60;99.90
29687;DHT22;16599;47.078;15.536;2022-10-31T02:45:14;7.70;99.90
29687;DHT22;16599;47.078;15.536;2022-10-31T02:47:45;7.60;99.90
29687;DHT22;16599;47.078;15.536;2022-10-31T02:50:27;7.60;99.90
29687;DHT22;16599;47.078;15.536;2022-10-31T02:52:55;7.60;99.90
29687;DHT22;16599;47.078;15.536;2022-10-31T02:58:11;7.50;99.90
29687;DHT22;16599;47.078;15.536;2022-10-31T03:03:25;7.60;99.90
29687;DHT22;16599;47.078;15.536;2022-10-31T03:06:11;7.50;99.90
29687;DHT22;16599;47.078;15.536;2022-10-31T03:08:52;7.50;99.90
29687;DHT22;16599;47.078;15.536;2022-10-31T03:11:24;7.50;99.90
29687;DHT22;16599;47.078;15.536;2022-10-31T03:14:02;7.40;99.90
29687;DHT22;16599;47.078;15.536;2022-10-31T03:16:44;7.40;99.90
29687;DHT22;16599;47.078;15.536;2022-10-31T03:19:27;7.50;99.90
29687;DHT22;16599;47.078;15.536;2022-10-31T03:22:06;7.50;99.90
29687;DHT22;16599;47.078;15.536;2022-10-31T03:24:37;7.30;99.90
29687;DHT22;16599;47.078;15.536;2022-10-31T03:27:07;7.10;99.90
29687;DHT22;16599;47.078;15.536;2022-10-31T03:29:37;7.20;99.90
29687;DHT22;16599;47.078;15.536;2022-10-31T03:32:08;7.30;99.90
29687;DHT22;16599;47.078;15.536;2022-10-31T03:34:37;7.40;99.90
29687;DHT22;16599;47.078;15.536;2022-10-31T03:37:08;7.30;99.90
29687;DHT22;16599;47.078;15.536;2022-10-31T03:39:37;7.40;99.90
29687;DHT22;16599;47.078;15.536;2022-10-31T03:42:11;7.30;99.90
29687;DHT22;16599;47.078;15.536;2022-10-31T03:44:46;7.20;99.90
29687;DHT22;16599;47.078;15.536;2022-10-31T03:47:13;7.20;99.90
29687;DHT22;16599;47.078;15.536;2022-10-31T03:49:40;7.10;99.90
29687;DHT22;16599;47.078;15.536;2022-10-31T03:52:21;7.20;99.90
29687;DHT22;16599;47.078;15.536;2022-10-31T03:54:56;7.30;99.90
29687;DHT22;16599;47.078;15.536;2022-10-31T04:00:14;7.40;99.90
29687;DHT22;16599;47.078;15.536;2022-10-31T04:03:09;7.30;99.90
29687;DHT22;16599;47.078;15.536;2022-10-31T04:05:37;7.30;99.90
29687;DHT22;16599;47.078;15.536;2022-10-31T04:08:08;7.30;99.90
29687;DHT22;16599;47.078;15.536;2022-10-31T04:10:37;7.30;99.90
29687;DHT22;16599;47.078;15.536;2022-10-31T04:13:08;7.30;99.90
29687;DHT22;16599;47.078;15.536;2022-10-31T04:15:37;7.30;99.90
29687;DHT22;16599;47.078;15.536;2022-10-31T04:18:05;7.30;99.90
29687;DHT22;16599;47.078;15.536;2022-10-31T04:20:38;7.10;99.90
29687;DHT22;16599;47.078;15.536;2022-10-31T04:23:14;7.20;99.90
29687;DHT22;16599;47.078;15.536;2022-10-31T04:25:42;7.10;99.90
29687;DHT22;16599;47.078;15.536;2022-10-31T04:28:09;7.10;99.90
29687;DHT22;16599;47.078;15.536;2022-10-31T04:30:35;7.00;99.90
29687;DHT22;16599;47.078;15.536;2022-10-31T04:33:02;7.20;99.90
29687;DHT22;16599;47.078;15.536;2022-10-31T04:35:29;7.10;99.90
29687;DHT22;16599;47.078;15.536;2022-10-31T04:37:56;7.00;99.90
29687;DHT22;16599;47.078;15.536;2022-10-31T04:40:23;7.00;99.90
29687;DHT22;16599;47.078;15.536;2022-10-31T04:42:50;7.10;99.90
29687;DHT22;16599;47.078;15.536;2022-10-31T04:45:16;7.10;99.90
29687;DHT22;16599;47.078;15.536;2022-10-31T04:47:47;7.10;99.90
29687;DHT22;16599;47.078;15.536;2022-10-31T04:50:14;7.10;99.90
29687;DHT22;16599;47.078;15.536;2022-10-31T04:52:42;7.00;99.90
29687;DHT22;16599;47.078;15.536;2022-10-31T04:55:10;7.10;99.90
29687;DHT22;16599;47.078;15.536;2022-10-31T04:57:48;7.20;99.90
29687;DHT22;16599;47.078;15.536;2022-10-31T05:00:17;7.00;99.90
29687;DHT22;16599;47.078;15.536;2022-10-31T05:05:13;7.20;99.90
29687;DHT22;16599;47.078;15.536;2022-10-31T05:07:44;7.10;99.90
29687;DHT22;16599;47.078;15.536;2022-10-31T05:10:12;7.10;99.90
29687;DHT22;16599;47.078;15.536;2022-10-31T05:12:47;6.90;99.90
29687;DHT22;16599;47.078;15.536;2022-10-31T05:15:15;7.00;99.90
29687;DHT22;16599;47.078;15.536;2022-10-31T05:17:42;7.00;99.90
29687;DHT22;16599;47.078;15.536;2022-10-31T05:20:11;6.90;99.90
29687;DHT22;16599;47.078;15.536;2022-10-31T05:22:42;7.00;99.90
29687;DHT22;16599;47.078;15.536;2022-10-31T05:25:10;7.10;99.90
29687;DHT22;16599;47.078;15.536;2022-10-31T05:27:42;7.10;99.90
29687;DHT22;16599;47.078;15.536;2022-10-31T05:30:10;6.80;99.90
29687;DHT22;16599;47.078;15.536;2022-10-31T05:32:48;7.00;99.90
29687;DHT22;16599;47.078;15.536;2022-10-31T05:35:17;7.10;99.90
29687;DHT22;16599;47.078;15.536;2022-10-31T05:37:45;7.10;99.90
29687;DHT22;16599;47.078;15.536;2022-10-31T05:40:13;6.80;99.90
29687;DHT22;16599;47.078;15.536;2022-10-31T05:42:41;6.80;99.90
29687;DHT22;16599;47.078;15.536;2022-10-31T05:45:09;6.80;99.90
29687;DHT22;16599;47.078;15.536;2022-10-31T05:47:36;6.80;99.90
29687;DHT22;16599;47.078;15.536;2022-10-31T05:50:04;6.90;99.90
29687;DHT22;16599;47.078;15.536;2022-10-31T05:52:31;7.00;99.90
29687;DHT22;16599;47.078;15.536;2022-10-31T05:54:58;7.10;99.90
29687;DHT22;16599;47.078;15.536;2022-10-31T05:57:25;6.90;99.90
29687;DHT22;16599;47.078;15.536;2022-10-31T05:59:52;7.20;99.90
29687;DHT22;16599;47.078;15.536;2022-10-31T06:02:21;7.10;99.90
29687;DHT22;16599;47.078;15.536;2022-10-31T06:04:48;7.20;99.90
29687;DHT22;16599;47.078;15.536;2022-10-31T06:07:15;7.20;99.90
29687;DHT22;16599;47.078;15.536;2022-10-31T06:09:41;7.30;99.90
29687;DHT22;16599;47.078;15.536;2022-10-31T06:12:08;7.20;99.90
29687;DHT22;16599;47.078;15.536;2022-10-31T06:14:35;7.30;99.90
29687;DHT22;16599;47.078;15.536;2022-10-31T06:17:02;7.20;99.90
29687;DHT22;16599;47.078;15.536;2022-10-31T06:19:28;7.30;99.90
29687;DHT22;16599;47.078;15.536;2022-10-31T06:21:55;7.30;99.90
29687;DHT22;16599;47.078;15.536;2022-10-31T06:24:22;7.40;99.90
29687;DHT22;16599;47.078;15.536;2022-10-31T06:26:49;7.30;99.90
29687;DHT22;16599;47.078;15.536;2022-10-31T06:29:16;7.30;99.90
29687;DHT22;16599;47.078;15.536;2022-10-31T06:31:43;7.40;99.90
29687;DHT22;16599;47.078;15.536;2022-10-31T06:34:09;7.40;99.90
29687;DHT22;16599;47.078;15.536;2022-10-31T06:36:36;7.30;99.90
29687;DHT22;16599;47.078;15.536;2022-10-31T06:39:03;7.40;99.90
29687;DHT22;16599;47.078;15.536;2022-10-31T06:41:30;7.40;99.90
29687;DHT22;16599;47.078;15.536;2022-10-31T06:43:57;7.40;99.90
29687;DHT22;16599;47.078;15.536;2022-10-31T06:46:23;7.50;99.90
29687;DHT22;16599;47.078;15.536;2022-10-31T06:48:50;7.60;99.90
29687;DHT22;16599;47.078;15.536;2022-10-31T06:51:17;7.70;99.90
29687;DHT22;16599;47.078;15.536;2022-10-31T06:53:44;7.70;99.90
29687;DHT22;16599;47.078;15.536;2022-10-31T06:56:11;7.80;99.90
29687;DHT22;16599;47.078;15.536;2022-10-31T06:58:37;7.80;99.90
29687;DHT22;16599;47.078;15.536;2022-10-31T07:01:04;7.90;99.90
29687;DHT22;16599;47.078;15.536;2022-10-31T07:03:31;8.00;99.90
29687;DHT22;16599;47.078;15.536;2022-10-31T07:05:58;8.10;99.90
29687;DHT22;16599;47.078;15.536;2022-10-31T07:08:25;8.20;99.90
29687;DHT22;16599;47.078;15.536;2022-10-31T07:10:55;8.20;99.90
29687;DHT22;16599;47.078;15.536;2022-10-31T07:13:23;8.40;99.90
29687;DHT22;16599;47.078;15.536;2022-10-31T07:15:55;8.50;99.90
29687;DHT22;16599;47.078;15.536;2022-10-31T07:18:25;8.70;99.90
29687;DHT22;16599;47.078;15.536;2022-10-31T07:20:52;8.70;99.90
29687;DHT22;16599;47.078;15.536;2022-10-31T07:23:19;8.80;99.90
29687;DHT22;16599;47.078;15.536;2022-10-31T07:25:46;9.00;99.90
29687;DHT22;16599;47.078;15.536;2022-10-31T07:28:13;9.10;99.90
29687;DHT22;16599;47.078;15.536;2022-10-31T07:30:40;9.30;99.90
29687;DHT22;16599;47.078;15.536;2022-10-31T07:33:07;9.20;99.90
29687;DHT22;16599;47.078;15.536;2022-10-31T07:35:34;9.30;99.90
29687;DHT22;16599;47.078;15.536;2022-10-31T07:38:10;9.40;99.90
29687;DHT22;16599;47.078;15.536;2022-10-31T07:40:37;9.50;99.90
29687;DHT22;16599;47.078;15.536;2022-10-31T07:43:04;9.70;99.90
29687;DHT22;16599;47.078;15.536;2022-10-31T07:45:38;9.80;99.90
29687;DHT22;16599;47.078;15.536;2022-10-31T07:48:05;10.00;99.90
29687;DHT22;16599;47.078;15.536;2022-10-31T07:50:32;10.10;99.90
29687;DHT22;16599;47.078;15.536;2022-10-31T07:53:11;10.10;99.90
29687;DHT22;16599;47.078;15.536;2022-10-31T07:55:38;10.30;99.90
29687;DHT22;16599;47.078;15.536;2022-10-31T07:58:08;10.30;99.90
29687;DHT22;16599;47.078;15.536;2022-10-31T08:00:36;10.50;99.90
29687;DHT22;16599;47.078;15.536;2022-10-31T08:03:05;10.60;99.90
29687;DHT22;16599;47.078;15.536;2022-10-31T08:05:33;10.80;99.90
29687;DHT22;16599;47.078;15.536;2022-10-31T08:08:00;11.10;99.90
29687;DHT22;16599;47.078;15.536;2022-10-31T08:10:28;11.50;99.90
29687;DHT22;16599;47.078;15.536;2022-10-31T08:13:00;12.00;99.90
29687;DHT22;16599;47.078;15.536;2022-10-31T08:15:27;12.20;99.90
29687;DHT22;16599;47.078;15.536;2022-10-31T08:17:54;12.30;99.90
29687;DHT22;16599;47.078;15.536;2022-10-31T08:20:21;12.50;99.90
29687;DHT22;16599;47.078;15.536;2022-10-31T08:22:59;12.70;99.90
29687;DHT22;16599;47.078;15.536;2022-10-31T08:25:29;12.60;99.90
29687;DHT22;16599;47.078;15.536;2022-10-31T08:28:04;12.70;99.90
29687;DHT22;16599;47.078;15.536;2022-10-31T08:30:33;12.70;99.90
29687;DHT22;16599;47.078;15.536;2022-10-31T08:33:15;12.90;99.90
29687;DHT22;16599;47.078;15.536;2022-10-31T08:35:42;13.00;99.90
29687;DHT22;16599;47.078;15.536;2022-10-31T08:38:11;13.10;99.90
29687;DHT22;16599;47.078;15.536;2022-10-31T08:40:38;13.30;99.90
29687;DHT22;16599;47.078;15.536;2022-10-31T08:43:10;13.20;99.90
29687;DHT22;16599;47.078;15.536;2022-10-31T08:45:37;13.40;99.90
29687;DHT22;16599;47.078;15.536;2022-10-31T08:48:06;13.50;99.90
29687;DHT22;16599;47.078;15.536;2022-10-31T08:50:34;13.60;99.90
29687;DHT22;16599;47.078;15.536;2022-10-31T08:55:33;13.80;99.90
29687;DHT22;16599;47.078;15.536;2022-10-31T08:58:01;13.80;99.90
29687;DHT22;16599;47.078;15.536;2022-10-31T09:00:29;14.00;99.90
29687;DHT22;16599;47.078;15.536;2022-10-31T09:02:57;14.10;99.90
29687;DHT22;16599;47.078;15.536;2022-10-31T09:05:25;14.20;99.90
29687;DHT22;16599;47.078;15.536;2022-10-31T09:07:59;14.20;99.90
29687;DHT22;16599;47.078;15.536;2022-10-31T09:10:28;14.20;99.90
29687;DHT22;16599;47.078;15.536;2022-10-31T09:13:04;14.40;99.90
29687;DHT22;16599;47.078;15.536;2022-10-31T09:15:36;14.40;99.90
29687;DHT22;16599;47.078;15.536;2022-10-31T09:18:05;14.50;99.90
29687;DHT22;16599;47.078;15.536;2022-10-31T09:20:34;14.50;99.90
29687;DHT22;16599;47.078;15.536;2022-10-31T09:23:07;14.70;99.90
29687;DHT22;16599;47.078;15.536;2022-10-31T09:25:36;15.00;99.90
29687;DHT22;16599;47.078;15.536;2022-10-31T09:28:04;15.00;99.90
29687;DHT22;16599;47.078;15.536;2022-10-31T09:30:33;15.20;99.90
29687;DHT22;16599;47.078;15.536;2022-10-31T09:33:06;15.20;99.90
29687;DHT22;16599;47.078;15.536;2022-10-31T09:35:33;15.30;99.90
29687;DHT22;16599;47.078;15.536;2022-10-31T09:38:12;15.40;99.90
29687;DHT22;16599;47.078;15.536;2022-10-31T09:40:55;15.40;99.90
29687;DHT22;16599;47.078;15.536;2022-10-31T09:43:49;15.70;99.90
29687;DHT22;16599;47.078;15.536;2022-10-31T09:52:30;16.30;99.90
29687;DHT22;16599;47.078;15.536;2022-10-31T09:55:23;16.30;99.90
29687;DHT22;16599;47.078;15.536;2022-10-31T09:57:47;16.30;99.90
29687;DHT22;16599;47.078;15.536;2022-10-31T10:00:18;16.30;99.90
29687;DHT22;16599;47.078;15.536;2022-10-31T10:03:10;16.20;99.90
29687;DHT22;16599;47.078;15.536;2022-10-31T10:05:49;16.30;99.90
29687;DHT22;16599;47.078;15.536;2022-10-31T10:08:25;16.30;99.90
29687;DHT22;16599;47.078;15.536;2022-10-31T10:24:27;17.20;99.90
29687;DHT22;16599;47.078;15.536;2022-10-31T10:29:58;17.00;99.90
29687;DHT22;16599;47.078;15.536;2022-10-31T10:32:30;17.30;99.90
29687;DHT22;16599;47.078;15.536;2022-10-31T10:35:30;17.40;99.90
29687;DHT22;16599;47.078;15.536;2022-10-31T10:38:31;17.30;99.90
29687;DHT22;16599;47.078;15.536;2022-10-31T10:41:05;17.40;99.90
29687;DHT22;16599;47.078;15.536;2022-10-31T10:43:36;17.30;99.90
29687;DHT22;16599;47.078;15.536;2022-10-31T10:46:25;17.10;99.90
29687;DHT22;16599;47.078;15.536;2022-10-31T10:49:19;17.30;99.90
29687;DHT22;16599;47.078;15.536;2022-10-31T10:55:18;17.30;99.90
29687;DHT22;16599;47.078;15.536;2022-10-31T10:58:00;17.30;99.90
29687;DHT22;16599;47.078;15.536;2022-10-31T11:02:58;17.40;99.90
29687;DHT22;16599;47.078;15.536;2022-10-31T11:05:35;17.80;99.90
29687;DHT22;16599;47.078;15.536;2022-10-31T11:08:03;17.90;99.90
29687;DHT22;16599;47.078;15.536;2022-10-31T11:10:30;17.80;99.90
29687;DHT22;16599;47.078;15.536;2022-10-31T11:13:21;17.80;99.90
29687;DHT22;16599;47.078;15.536;2022-10-31T11:16:00;17.70;99.90
29687;DHT22;16599;47.078;15.536;2022-10-31T11:18:31;17.80;99.90
29687;DHT22;16599;47.078;15.536;2022-10-31T11:21:00;18.00;99.90
29687;DHT22;16599;47.078;15.536;2022-10-31T11:23:47;18.30;99.90
29687;DHT22;16599;47.078;15.536;2022-10-31T11:26:20;18.20;99.50
29687;DHT22;16599;47.078;15.536;2022-10-31T11:28:57;18.00;99.30
29687;DHT22;16599;47.078;15.536;2022-10-31T11:31:25;17.90;99.60
29687;DHT22;16599;47.078;15.536;2022-10-31T11:34:00;17.90;99.90
29687;DHT22;16599;47.078;15.536;2022-10-31T11:36:38;18.10;99.90
29687;DHT22;16599;47.078;15.536;2022-10-31T11:39:22;18.30;99.90
29687;DHT22;16599;47.078;15.536;2022-10-31T11:41:52;18.20;99.90
29687;DHT22;16599;47.078;15.536;2022-10-31T11:44:23;18.30;99.50
29687;DHT22;16599;47.078;15.536;2022-10-31T11:46:58;18.40;99.20
29687;DHT22;16599;47.078;15.536;2022-10-31T11:49:39;18.40;99.90
29687;DHT22;16599;47.078;15.536;2022-10-31T11:52:14;18.70;99.70
29687;DHT22;16599;47.078;15.536;2022-10-31T12:00:01;18.60;98.30
29687;DHT22;16599;47.078;15.536;2022-10-31T12:02:30;18.70;99.90
29687;DHT22;16599;47.078;15.536;2022-10-31T12:07:59;18.90;98.50
29687;DHT22;16599;47.078;15.536;2022-10-31T12:10:46;18.90;97.90
29687;DHT22;16599;47.078;15.536;2022-10-31T12:13:40;19.00;97.70
29687;DHT22;16599;47.078;15.536;2022-10-31T12:16:36;19.50;96.50
29687;DHT22;16599;47.078;15.536;2022-10-31T12:19:11;19.70;96.00
29687;DHT22;16599;47.078;15.536;2022-10-31T12:42:34;19.70;95.00
29687;DHT22;16599;47.078;15.536;2022-10-31T12:48:08;19.30;95.40
29687;DHT22;16599;47.078;15.536;2022-10-31T12:51:13;19.50;95.90
29687;DHT22;16599;47.078;15.536;2022-10-31T12:54:36;19.70;95.20
29687;DHT22;16599;47.078;15.536;2022-10-31T13:02:55;19.10;95.40
29687;DHT22;16599;47.078;15.536;2022-10-31T13:08:17;19.60;95.60
29687;DHT22;16599;47.078;15.536;2022-10-31T13:11:11;19.40;95.80
29687;DHT22;16599;47.078;15.536;2022-10-31T13:14:13;19.60;94.90
29687;DHT22;16599;47.078;15.536;2022-10-31T13:16:50;19.80;94.60
29687;DHT22;16599;47.078;15.536;2022-10-31T13:19:30;19.60;94.20
29687;DHT22;16599;47.078;15.536;2022-10-31T13:22:29;19.70;96.20
29687;DHT22;16599;47.078;15.536;2022-10-31T13:25:27;19.80;95.30
29687;DHT22;16599;47.078;15.536;2022-10-31T13:28:02;19.80;96.20
29687;DHT22;16599;47.078;15.536;2022-10-31T13:30:36;19.70;94.60
29687;DHT22;16599;47.078;15.536;2022-10-31T13:33:15;19.50;95.40
29687;DHT22;16599;47.078;15.536;2022-10-31T13:40:51;19.60;95.70
29687;DHT22;16599;47.078;15.536;2022-10-31T13:43:28;19.50;95.20
29687;DHT22;16599;47.078;15.536;2022-10-31T13:45:58;19.50;95.80
29687;DHT22;16599;47.078;15.536;2022-10-31T13:48:36;19.30;96.60
29687;DHT22;16599;47.078;15.536;2022-10-31T13:51:06;19.30;96.50
29687;DHT22;16599;47.078;15.536;2022-10-31T13:58:36;19.10;97.00
29687;DHT22;16599;47.078;15.536;2022-10-31T14:01:15;18.90;97.60
29687;DHT22;16599;47.078;15.536;2022-10-31T14:03:46;18.60;98.40
29687;DHT22;16599;47.078;15.536;2022-10-31T14:06:44;18.30;98.70
29687;DHT22;16599;47.078;15.536;2022-10-31T14:09:30;18.20;98.60
29687;DHT22;16599;47.078;15.536;2022-10-31T14:12:01;18.00;99.90
29687;DHT22;16599;47.078;15.536;2022-10-31T14:14:40;17.90;99.90
29687;DHT22;16599;47.078;15.536;2022-10-31T14:17:18;17.70;99.90
29687;DHT22;16599;47.078;15.536;2022-10-31T14:22:40;17.40;99.90
29687;DHT22;16599;47.078;15.536;2022-10-31T14:25:35;17.30;99.90
29687;DHT22;16599;47.078;15.536;2022-10-31T14:28:21;17.10;99.90
29687;DHT22;16599;47.078;15.536;2022-10-31T14:30:56;17.10;99.90
29687;DHT22;16599;47.078;15.536;2022-10-31T14:33:27;17.00;99.90
29687;DHT22;16599;47.078;15.536;2022-10-31T14:36:06;16.90;99.90
29687;DHT22;16599;47.078;15.536;2022-10-31T14:53:05;16.50;99.90
29687;DHT22;16599;47.078;15.536;2022-10-31T14:55:53;16.50;99.90
29687;DHT22;16599;47.078;15.536;2022-10-31T15:04:03;16.10;99.90
29687;DHT22;16599;47.078;15.536;2022-10-31T15:09:58;16.00;99.90
29687;DHT22;16599;47.078;15.536;2022-10-31T15:12:29;15.90;99.90
29687;DHT22;16599;47.078;15.536;2022-10-31T15:14:56;15.80;99.90
29687;DHT22;16599;47.078;15.536;2022-10-31T15:17:25;15.80;99.90
29687;DHT22;16599;47.078;15.536;2022-10-31T15:19:53;15.70;99.90
29687;DHT22;16599;47.078;15.536;2022-10-31T15:22:23;15.50;99.90
29687;DHT22;16599;47.078;15.536;2022-10-31T15:24:50;15.40;99.90
29687;DHT22;16599;47.078;15.536;2022-10-31T15:27:23;15.20;99.90
29687;DHT22;16599;47.078;15.536;2022-10-31T15:29:55;15.00;99.90
29687;DHT22;16599;47.078;15.536;2022-10-31T15:34:50;14.80;99.90
29687;DHT22;16599;47.078;15.536;2022-10-31T15:37:23;14.60;99.90
29687;DHT22;16599;47.078;15.536;2022-10-31T15:39:52;14.50;99.90
29687;DHT22;16599;47.078;15.536;2022-10-31T15:42:41;14.10;99.90
29687;DHT22;16599;47.078;15.536;2022-10-31T15:47:39;13.50;99.90
29687;DHT22;16599;47.078;15.536;2022-10-31T15:50:38;13.40;99.90
29687;DHT22;16599;47.078;15.536;2022-10-31T15:53:20;13.40;99.90
29687;DHT22;16599;47.078;15.536;2022-10-31T15:55:54;13.40;99.90
29687;DHT22;16599;47.078;15.536;2022-10-31T15:58:21;13.30;99.90
29687;DHT22;16599;47.078;15.536;2022-10-31T16:06:31;12.70;99.90
29687;DHT22;16599;47.078;15.536;2022-10-31T16:08:58;12.60;99.90
29687;DHT22;16599;47.078;15.536;2022-10-31T16:11:33;12.40;99.90
29687;DHT22;16599;47.078;15.536;2022-10-31T16:16:46;12.10;99.90
29687;DHT22;16599;47.078;15.536;2022-10-31T16:19:24;12.00;99.90
29687;DHT22;16599;47.078;15.536;2022-10-31T16:25:37;11.80;99.90
29687;DHT22;16599;47.078;15.536;2022-10-31T16:28:14;11.50;99.90
29687;DHT22;16599;47.078;15.536;2022-10-31T16:30:56;11.70;99.90
29687;DHT22;16599;47.078;15.536;2022-10-31T16:33:27;11.80;99.90
29687;DHT22;16599;47.078;15.536;2022-10-31T16:35:55;11.50;99.90
29687;DHT22;16599;47.078;15.536;2022-10-31T16:38:41;11.70;99.90
29687;DHT22;16599;47.078;15.536;2022-10-31T16:41:08;11.30;99.90
29687;DHT22;16599;47.078;15.536;2022-10-31T16:43:35;11.20;99.90
29687;DHT22;16599;47.078;15.536;2022-10-31T16:46:02;11.20;99.90
29687;DHT22;16599;47.078;15.536;2022-10-31T16:48:30;11.10;99.90
29687;DHT22;16599;47.078;15.536;2022-10-31T16:50:56;11.30;99.90
29687;DHT22;16599;47.078;15.536;2022-10-31T16:53:23;11.10;99.90
29687;DHT22;16599;47.078;15.536;2022-10-31T16:55:55;11.20;99.90
29687;DHT22;16599;47.078;15.536;2022-10-31T16:58:36;11.40;99.90
29687;DHT22;16599;47.078;15.536;2022-10-31T17:01:05;10.90;99.90
29687;DHT22;16599;47.078;15.536;2022-10-31T17:03:33;11.00;99.90
29687;DHT22;16599;47.078;15.536;2022-10-31T17:06:00;10.50;99.90
29687;DHT22;16599;47.078;15.536;2022-10-31T17:08:27;10.30;99.90
29687;DHT22;16599;47.078;15.536;2022-10-31T17:10:55;10.60;99.90
29687;DHT22;16599;47.078;15.536;2022-10-31T17:13:27;10.70;99.90
29687;DHT22;16599;47.078;15.536;2022-10-31T17:15:59;10.40;99.90
29687;DHT22;16599;47.078;15.536;2022-10-31T17:18:26;10.40;99.90
29687;DHT22;16599;47.078;15.536;2022-10-31T17:20:58;10.50;99.90
29687;DHT22;16599;47.078;15.536;2022-10-31T17:23:26;10.50;99.90
29687;DHT22;16599;47.078;15.536;2022-10-31T17:25:54;10.30;99.90
29687;DHT22;16599;47.078;15.536;2022-10-31T17:28:21;10.30;99.90
29687;DHT22;16599;47.078;15.536;2022-10-31T17:30:48;10.00;99.90
29687;DHT22;16599;47.078;15.536;2022-10-31T17:33:16;10.20;99.90
29687;DHT22;16599;47.078;15.536;2022-10-31T17:35:44;10.20;99.90
29687;DHT22;16599;47.078;15.536;2022-10-31T17:38:11;10.10;99.90
29687;DHT22;16599;47.078;15.536;2022-10-31T17:40:39;9.90;99.90
29687;DHT22;16599;47.078;15.536;2022-10-31T17:43:09;9.90;99.90
29687;DHT22;16599;47.078;15.536;2022-10-31T17:45:40;9.70;99.90
29687;DHT22;16599;47.078;15.536;2022-10-31T17:48:28;9.60;99.90
29687;DHT22;16599;47.078;15.536;2022-10-31T17:50:59;9.50;99.90
29687;DHT22;16599;47.078;15.536;2022-10-31T17:53:28;9.40;99.90
29687;DHT22;16599;47.078;15.536;2022-10-31T17:56:13;9.40;99.90
29687;DHT22;16599;47.078;15.536;2022-10-31T17:58:40;9.40;99.90
29687;DHT22;16599;47.078;15.536;2022-10-31T18:01:10;9.30;99.90
29687;DHT22;16599;47.078;15.536;2022-10-31T18:03:37;9.50;99.90
29687;DHT22;16599;47.078;15.536;2022-10-31T18:06:05;9.40;99.90
29687;DHT22;16599;47.078;15.536;2022-10-31T18:08:34;9.30;99.90
29687;DHT22;16599;47.078;15.536;2022-10-31T18:11:09;9.50;99.90
29687;DHT22;16599;47.078;15.536;2022-10-31T18:13:37;9.40;99.90
29687;DHT22;16599;47.078;15.536;2022-10-31T18:16:22;9.30;99.90
29687;DHT22;16599;47.078;15.536;2022-10-31T18:18:51;9.30;99.90
29687;DHT22;16599;47.078;15.536;2022-10-31T18:21:19;9.40;99.90